Time;durP1;ratioP1;P1;durP2;ratioP2;P2;SDS_P1;SDS_P2;PMS_P1;PMS_P2;Temp;Humidity;BMP_temperature;BMP_pressure;BME280_temperature;BME280_humidity;BME280_pressure;Samples;Min_cycle;Max_cycle;Signal;HPM_P1;HPM_P2
2022/08/15 00:00:50;;;;;;;7.45;3.78;;;24.00;99.90;;;;;;5050852;28;20388;-50
2022/08/15 00:03:29;;;;;;;8.93;4.32;;;24.00;99.90;;;;;;5050280;28;20421;-50
2022/08/15 00:05:57;;;;;;;11.13;4.45;;;24.10;99.90;;;;;;5049702;28;20417;-50
2022/08/15 00:08:23;;;;;;;7.75;3.80;;;24.30;99.90;;;;;;5051300;28;20389;-49
2022/08/15 00:10:49;;;;;;;7.50;3.88;;;24.20;99.90;;;;;;5050323;28;20397;-50
2022/08/15 00:13:28;;;;;;;12.10;4.25;;;24.30;99.90;;;;;;5049493;28;20866;-50
2022/08/15 00:15:56;;;;;;;8.70;3.90;;;24.30;99.90;;;;;;5050099;28;20639;-50
2022/08/15 00:18:24;;;;;;;8.70;4.07;;;24.20;99.90;;;;;;5050032;28;20391;-50
2022/08/15 00:20:52;;;;;;;9.20;4.45;;;24.00;99.90;;;;;;5049854;28;20384;-54
2022/08/15 00:23:26;;;;;;;10.10;5.20;;;23.70;99.90;;;;;;5049833;28;20409;-50
2022/08/15 00:25:57;;;;;;;10.00;4.50;;;23.40;99.90;;;;;;5048946;28;20408;-54
2022/08/15 00:28:25;;;;;;;8.10;4.00;;;23.30;99.90;;;;;;5050033;28;20767;-49
2022/08/15 00:30:50;;;;;;;9.63;4.65;;;23.40;99.90;;;;;;5049727;28;20747;-54
2022/08/15 00:33:16;;;;;;;9.40;4.68;;;23.70;99.90;;;;;;5049671;28;20475;-50
2022/08/15 00:35:50;;;;;;;8.48;4.20;;;23.50;99.90;;;;;;5049592;28;20432;-49
2022/08/15 00:38:20;;;;;;;8.70;4.70;;;23.50;99.90;;;;;;5049027;28;20774;-50
2022/08/15 00:43:37;;;;;;;9.80;4.30;;;23.60;99.90;;;;;;5049510;28;20420;-50
2022/08/15 00:46:06;;;;;;;8.93;4.35;;;23.60;99.90;;;;;;5049589;28;20785;-49
2022/08/15 00:48:44;;;;;;;9.45;4.63;;;23.40;99.90;;;;;;5049544;28;20397;-49
2022/08/15 00:51:21;;;;;;;14.45;4.95;;;23.30;99.90;;;;;;5047596;28;20397;-50
2022/08/15 00:53:53;;;;;;;9.40;4.60;;;23.40;99.90;;;;;;5049863;28;20397;-49
2022/08/15 00:56:20;;;;;;;13.20;4.90;;;23.40;1.00;;;;;;5049392;28;20441;-49
2022/08/15 00:58:46;;;;;;;10.60;4.60;;;23.40;1.00;;;;;;5050283;28;20405;-49
2022/08/15 01:01:14;;;;;;;12.10;4.38;;;23.30;1.00;;;;;;5049856;28;20408;-50
2022/08/15 01:03:44;;;;;;;10.02;4.60;;;23.10;1.00;;;;;;5049862;28;20559;-50
2022/08/15 01:06:10;;;;;;;9.35;4.68;;;22.90;1.00;;;;;;5048555;28;20397;-49
2022/08/15 01:08:39;;;;;;;8.85;4.60;;;22.70;1.00;;;;;;5049865;28;20385;-50
2022/08/15 01:11:27;;;;;;;11.57;4.88;;;22.70;1.00;;;;;;5049554;28;21199;-49
2022/08/15 01:13:55;;;;;;;8.80;4.40;;;22.70;1.00;;;;;;5049550;28;20394;-50
2022/08/15 01:16:23;;;;;;;8.80;4.60;;;22.70;1.00;;;;;;5050286;28;20409;-49
2022/08/15 01:18:51;;;;;;;12.52;4.80;;;22.80;1.00;;;;;;5050229;28;20839;-50
2022/08/15 01:22:00;;;;;;;9.52;5.00;;;22.80;1.00;;;;;;5043707;28;20461;-50
2022/08/15 01:24:41;;;;;;;10.35;4.90;;;22.80;1.00;;;;;;5023057;28;20413;-49
2022/08/15 01:27:09;;;;;;;8.77;5.22;;;22.70;29.30;;;;;;5048648;28;20897;-49
2022/08/15 01:29:35;;;;;;;11.32;4.90;;;22.70;99.90;;;;;;5049884;28;21110;-49
2022/08/15 01:32:00;;;;;;;8.18;4.47;;;22.60;99.90;;;;;;5048647;28;20488;-49
2022/08/15 01:34:26;;;;;;;10.60;4.70;;;22.60;99.90;;;;;;5038175;28;20458;-50
2022/08/15 01:36:52;;;;;;;8.90;4.80;;;22.50;99.90;;;;;;5049393;28;20722;-49
2022/08/15 01:39:38;;;;;;;9.07;5.07;;;22.10;99.90;;;;;;5049449;28;20436;-49
2022/08/15 01:42:19;;;;;;;9.32;5.20;;;22.30;99.90;;;;;;5048865;28;20615;-49
2022/08/15 01:44:53;;;;;;;9.13;4.90;;;22.30;6.40;;;;;;5034233;28;20425;-50
2022/08/15 01:47:36;;;;;;;10.48;5.18;;;22.30;9.20;;;;;;5049866;28;20397;-49
2022/08/15 01:50:15;;;;;;;9.55;5.10;;;22.30;11.90;;;;;;5048269;28;20755;-49
2022/08/15 01:52:48;;;;;;;9.95;4.90;;;22.10;55.70;;;;;;5048995;28;20398;-50
2022/08/15 01:55:16;;;;;;;8.60;4.53;;;22.00;99.90;;;;;;5037497;28;20477;-49
2022/08/15 01:57:41;;;;;;;8.70;4.70;;;22.10;45.20;;;;;;5049646;28;20443;-49
2022/08/15 02:00:10;;;;;;;10.93;4.33;;;22.10;1.00;;;;;;5048848;28;20874;-49
2022/08/15 02:02:36;;;;;;;8.90;4.90;;;22.20;1.00;;;;;;5036953;28;20863;-49
2022/08/15 02:05:03;;;;;;;10.55;5.32;;;22.20;1.00;;;;;;5048795;28;20759;-50
2022/08/15 02:07:29;;;;;;;11.80;5.20;;;22.30;1.00;;;;;;5048740;28;20389;-49
2022/08/15 02:09:56;;;;;;;8.77;4.97;;;22.30;1.00;;;;;;5049001;28;20386;-49
2022/08/15 02:12:29;;;;;;;9.65;5.13;;;22.40;1.00;;;;;;5049312;28;20389;-50
2022/08/15 02:14:56;;;;;;;8.82;5.00;;;22.30;1.00;;;;;;5049049;28;20393;-53
2022/08/15 02:17:22;;;;;;;9.32;5.07;;;22.30;1.00;;;;;;5049100;28;20995;-51
2022/08/15 02:19:51;;;;;;;9.23;4.90;;;22.30;1.00;;;;;;5049277;28;20475;-49
2022/08/15 02:22:20;;;;;;;9.50;5.15;;;22.20;1.00;;;;;;5048171;28;20389;-49
2022/08/15 02:24:46;;;;;;;11.88;5.82;;;22.30;1.00;;;;;;5049380;28;20555;-49
2022/08/15 02:27:12;;;;;;;8.00;4.60;;;22.20;1.00;;;;;;5049212;28;20484;-51
2022/08/15 02:29:39;;;;;;;10.40;5.18;;;22.30;1.00;;;;;;5049032;28;20524;-49
2022/08/15 02:32:11;;;;;;;8.32;5.00;;;22.30;1.00;;;;;;5047831;28;20401;-49
2022/08/15 02:34:37;;;;;;;8.80;5.10;;;22.30;1.00;;;;;;5049166;28;20732;-49
2022/08/15 02:37:04;;;;;;;11.20;5.70;;;22.40;1.00;;;;;;5051609;28;20401;-49
2022/08/15 02:39:30;;;;;;;11.27;5.33;;;22.40;1.00;;;;;;5052784;28;20393;-49
2022/08/15 02:41:57;;;;;;;9.40;5.20;;;22.40;1.00;;;;;;5048493;28;20727;-53
2022/08/15 02:44:23;;;;;;;9.45;4.85;;;22.40;1.00;;;;;;5052919;28;20412;-50
2022/08/15 02:46:54;;;;;;;9.20;4.90;;;22.40;1.00;;;;;;5052609;28;20394;-50
2022/08/15 02:49:22;;;;;;;9.52;4.90;;;22.30;1.00;;;;;;5051862;28;20393;-51
2022/08/15 02:51:48;;;;;;;10.77;5.32;;;22.40;1.00;;;;;;5052559;28;20447;-50
2022/08/15 02:54:16;;;;;;;8.67;4.87;;;22.40;1.00;;;;;;5051893;28;20401;-49
2022/08/15 02:56:42;;;;;;;9.85;5.10;;;22.40;1.00;;;;;;5052783;28;20911;-50
2022/08/15 02:59:10;;;;;;;10.53;5.50;;;22.50;1.00;;;;;;5052009;28;20394;-49
2022/08/15 03:01:37;;;;;;;8.65;4.90;;;22.50;1.00;;;;;;5051884;28;20393;-50
2022/08/15 03:04:06;;;;;;;12.73;4.97;;;22.50;1.00;;;;;;5051165;28;20413;-50
2022/08/15 03:06:32;;;;;;;10.77;5.15;;;22.60;1.00;;;;;;5052305;28;20404;-49
2022/08/15 03:09:00;;;;;;;10.38;5.55;;;22.50;1.00;;;;;;5051552;28;20692;-54
2022/08/15 03:11:27;;;;;;;8.90;5.07;;;22.50;1.00;;;;;;5052061;28;20500;-49
2022/08/15 03:13:54;;;;;;;8.30;4.80;;;22.50;1.00;;;;;;5052829;28;20427;-49
2022/08/15 03:16:20;;;;;;;10.45;5.13;;;22.40;1.00;;;;;;5051983;28;20409;-49
2022/08/15 03:18:46;;;;;;;10.82;5.40;;;22.40;1.00;;;;;;5051406;28;20792;-49
2022/08/15 03:21:17;;;;;;;10.37;5.20;;;22.40;1.00;;;;;;5051638;28;20400;-49
2022/08/15 03:23:49;;;;;;;13.20;5.03;;;22.40;1.00;;;;;;5051896;28;20413;-50
2022/08/15 03:26:21;;;;;;;9.65;4.85;;;22.40;1.00;;;;;;5051205;28;20816;-51
2022/08/15 03:28:47;;;;;;;8.40;4.85;;;22.40;1.00;;;;;;5051867;28;20410;-51
2022/08/15 03:31:14;;;;;;;8.65;4.60;;;22.30;6.60;;;;;;5051794;28;20465;-51
2022/08/15 03:33:41;;;;;;;10.95;4.90;;;22.40;20.20;;;;;;5051442;28;20397;-49
2022/08/15 03:36:08;;;;;;;8.70;4.85;;;22.40;31.30;;;;;;5051226;28;20734;-50
2022/08/15 03:38:34;;;;;;;9.30;4.30;;;22.40;54.80;;;;;;5051513;28;20657;-50
2022/08/15 03:41:00;;;;;;;9.32;4.20;;;22.40;54.10;;;;;;5050255;28;20397;-50
2022/08/15 03:43:28;;;;;;;9.82;4.35;;;22.50;80.50;;;;;;5051571;28;20428;-51
2022/08/15 03:46:06;;;;;;;9.25;4.28;;;22.40;97.40;;;;;;5051457;28;20848;-50
2022/08/15 03:48:52;;;;;;;8.77;4.20;;;22.40;99.90;;;;;;5050520;28;20421;-51
2022/08/15 03:51:20;;;;;;;7.75;3.90;;;22.40;99.90;;;;;;5050760;28;20389;-49
2022/08/15 03:53:52;;;;;;;9.15;3.70;;;22.40;99.90;;;;;;5051542;28;20738;-49
2022/08/15 03:56:24;;;;;;;10.38;4.10;;;22.30;99.90;;;;;;5050867;28;20400;-49
2022/08/15 03:58:51;;;;;;;9.25;3.97;;;22.30;99.90;;;;;;5051174;28;20392;-52
2022/08/15 04:01:27;;;;;;;8.48;3.92;;;22.20;99.90;;;;;;5050212;28;20468;-50
2022/08/15 04:03:53;;;;;;;8.77;3.80;;;22.40;99.90;;;;;;5050713;28;20760;-50
2022/08/15 04:06:23;;;;;;;8.60;4.40;;;22.20;1.00;;;;;;5050641;28;20396;-52
2022/08/15 04:08:50;;;;;;;9.30;3.75;;;22.20;1.00;;;;;;5051136;28;20696;-50
2022/08/15 04:11:17;;;;;;;8.10;3.65;;;22.20;1.00;;;;;;5050546;28;20390;-50
2022/08/15 04:13:44;;;;;;;7.93;3.42;;;22.20;1.00;;;;;;5051196;28;20984;-49
2022/08/15 04:16:11;;;;;;;9.15;3.90;;;22.10;1.00;;;;;;5050544;28;20504;-49
2022/08/15 04:18:37;;;;;;;9.00;3.90;;;22.00;99.90;;;;;;5050906;28;20405;-49
2022/08/15 04:21:06;;;;;;;8.10;3.22;;;22.00;99.90;;;;;;5049936;28;20781;-49
2022/08/15 04:23:32;;;;;;;8.43;3.50;;;21.80;1.00;;;;;;5051216;28;20393;-49
2022/08/15 04:25:58;;;;;;;8.80;3.70;;;21.60;99.90;;;;;;5050546;28;20393;-53
2022/08/15 04:28:25;;;;;;;7.90;3.60;;;21.60;99.90;;;;;;5050519;28;20938;-49
2022/08/15 04:30:51;;;;;;;8.35;3.90;;;21.40;1.00;;;;;;5049797;28;20775;-50
2022/08/15 04:33:19;;;;;;;7.80;3.70;;;21.40;99.90;;;;;;5049297;28;20386;-49
2022/08/15 04:35:51;;;;;;;9.13;3.95;;;21.50;1.00;;;;;;5049335;28;20413;-50
2022/08/15 04:38:17;;;;;;;8.43;3.90;;;21.50;1.00;;;;;;5047709;28;21129;-50
2022/08/15 04:40:44;;;;;;;9.23;3.60;;;21.50;99.90;;;;;;5050350;28;20410;-49
2022/08/15 04:43:10;;;;;;;8.55;3.50;;;21.40;1.00;;;;;;5046501;28;20420;-49
2022/08/15 04:45:38;;;;;;;9.70;3.70;;;21.50;99.90;;;;;;5049898;28;20389;-50
2022/08/15 04:48:04;;;;;;;9.80;3.90;;;21.60;1.00;;;;;;5049319;28;20653;-50
2022/08/15 04:50:37;;;;;;;8.50;4.22;;;21.60;1.00;;;;;;5049733;28;20386;-49
2022/08/15 04:53:04;;;;;;;10.13;3.67;;;21.60;99.90;;;;;;5049752;28;20389;-49
2022/08/15 04:55:31;;;;;;;9.23;4.20;;;21.70;1.00;;;;;;5050121;28;20472;-49
2022/08/15 04:57:58;;;;;;;7.80;3.65;;;21.80;99.90;;;;;;5049806;28;20476;-53
2022/08/15 05:00:27;;;;;;;8.23;4.20;;;21.90;99.90;;;;;;5048538;28;20919;-49
2022/08/15 05:03:12;;;;;;;7.72;4.20;;;21.90;99.90;;;;;;5047411;28;20389;-50
2022/08/15 05:05:41;;;;;;;8.20;4.13;;;21.90;99.90;;;;;;5047437;28;20418;-50
2022/08/15 05:08:08;;;;;;;8.73;3.75;;;22.00;99.90;;;;;;5048498;28;20393;-49
2022/08/15 05:10:34;;;;;;;7.57;3.90;;;22.00;99.90;;;;;;5049458;28;20401;-49
2022/08/15 05:13:15;;;;;;;8.97;4.27;;;22.10;1.00;;;;;;5048860;28;20389;-53
2022/08/15 05:15:43;;;;;;;8.30;4.20;;;22.00;99.90;;;;;;5049425;28;20413;-50
2022/08/15 05:18:09;;;;;;;9.02;4.07;;;22.00;1.00;;;;;;5048105;28;20400;-51
2022/08/15 05:20:35;;;;;;;11.80;4.10;;;22.00;99.90;;;;;;5048036;28;20874;-49
2022/08/15 05:23:09;;;;;;;8.05;3.97;;;22.00;1.00;;;;;;5048400;28;20446;-50
2022/08/15 05:25:38;;;;;;;8.70;3.92;;;22.00;99.90;;;;;;5049107;28;20429;-49
2022/08/15 05:28:05;;;;;;;8.77;4.00;;;22.10;1.00;;;;;;5047462;28;20890;-50
2022/08/15 05:30:31;;;;;;;8.82;4.10;;;22.10;1.00;;;;;;5048053;28;20882;-49
2022/08/15 05:33:13;;;;;;;9.07;4.18;;;22.10;1.00;;;;;;5049343;28;20859;-54
2022/08/15 05:35:45;;;;;;;9.50;4.43;;;22.20;99.90;;;;;;5049078;28;20397;-49
2022/08/15 05:38:31;;;;;;;10.10;3.80;;;22.20;99.90;;;;;;5048475;28;20400;-50
2022/08/15 05:41:24;;;;;;;11.25;3.80;;;22.20;99.90;;;;;;5048982;28;20389;-50
2022/08/15 05:44:06;;;;;;;9.10;4.00;;;22.30;1.00;;;;;;5049231;28;20842;-49
2022/08/15 05:46:53;;;;;;;9.27;3.90;;;22.10;1.00;;;;;;5049500;28;20398;-49
2022/08/15 05:49:25;;;;;;;12.25;4.28;;;22.00;1.00;;;;;;5048277;28;20385;-49
2022/08/15 05:52:02;;;;;;;8.68;3.50;;;21.90;99.90;;;;;;5048062;28;20425;-50
2022/08/15 05:54:53;;;;;;;9.63;3.47;;;21.90;99.90;;;;;;5057762;28;20402;-49
2022/08/15 05:57:30;;;;;;;8.50;3.22;;;22.00;99.90;;;;;;5056044;28;20568;-49
2022/08/15 06:00:01;;;;;;;9.18;3.33;;;21.90;99.90;;;;;;5049504;28;20401;-49
2022/08/15 06:02:44;;;;;;;10.13;3.45;;;21.70;99.90;;;;;;5049558;28;20417;-49
2022/08/15 06:05:22;;;;;;;11.73;3.47;;;21.70;99.90;;;;;;5042194;28;20498;-49
2022/08/15 06:07:49;;;;;;;10.25;3.55;;;21.80;99.90;;;;;;5049685;28;20447;-49
2022/08/15 06:10:25;;;;;;;7.80;3.25;;;21.90;1.00;;;;;;5049652;28;20435;-49
2022/08/15 06:12:56;;;;;;;8.70;3.30;;;22.00;1.00;;;;;;5053434;28;20381;-50
2022/08/15 06:15:33;;;;;;;7.27;2.70;;;22.20;99.90;;;;;;5053075;28;20434;-49
2022/08/15 06:18:02;;;;;;;9.40;3.00;;;22.30;99.90;;;;;;5052943;28;20388;-51
2022/08/15 06:20:37;;;;;;;6.82;3.05;;;22.30;1.00;;;;;;5053406;28;20392;-49
2022/08/15 06:23:20;;;;;;;6.18;2.55;;;22.40;1.00;;;;;;5052690;28;20920;-50
2022/08/15 06:26:13;;;;;;;7.33;2.90;;;22.50;1.00;;;;;;5053384;28;20421;-49
2022/08/15 06:29:37;;;;;;;9.00;2.30;;;22.40;1.00;;;;;;5036698;28;20409;-49
2022/08/15 06:32:09;;;;;;;7.90;3.00;;;22.20;1.00;;;;;;5037385;28;20464;-50
2022/08/15 06:34:41;;;;;;;7.82;2.83;;;21.90;98.10;;;;;;5052944;28;20886;-50
2022/08/15 06:37:13;;;;;;;8.43;3.00;;;21.80;99.90;;;;;;5052579;28;20377;-49
2022/08/15 06:40:08;;;;;;;9.10;3.50;;;21.70;1.00;;;;;;5053421;28;20381;-49
2022/08/15 06:42:34;;;;;;;8.02;2.67;;;21.70;99.90;;;;;;5047217;28;20398;-51
2022/08/15 06:45:08;;;;;;;8.18;2.90;;;22.00;99.90;;;;;;5053125;28;20448;-54
2022/08/15 06:47:35;;;;;;;7.60;2.80;;;21.90;99.90;;;;;;5053350;28;20429;-50
2022/08/15 06:50:11;;;;;;;7.97;3.20;;;21.70;1.00;;;;;;5052879;28;20374;-49
2022/08/15 06:52:38;;;;;;;8.20;2.70;;;21.70;99.90;;;;;;5052522;28;20855;-50
2022/08/15 06:55:04;;;;;;;7.38;2.72;;;21.80;99.90;;;;;;5052042;28;20395;-50
2022/08/15 06:57:46;;;;;;;6.80;2.50;;;21.80;1.00;;;;;;5053074;28;20373;-49
2022/08/15 07:00:22;;;;;;;7.47;2.70;;;21.90;99.90;;;;;;5052498;28;20438;-49
2022/08/15 07:03:19;;;;;;;6.68;2.42;;;22.10;1.00;;;;;;5052483;28;20378;-50
2022/08/15 07:05:54;;;;;;;8.10;3.00;;;22.40;1.00;;;;;;5052086;28;20405;-49
2022/08/15 07:08:37;;;;;;;8.93;2.85;;;22.50;1.00;;;;;;5051756;28;20417;-49
2022/08/15 07:11:19;;;;;;;7.78;2.78;;;23.10;99.90;;;;;;5052340;28;20413;-50
2022/08/15 07:14:20;;;;;;;7.22;3.10;;;24.00;99.90;;;;;;5052395;28;20481;-50
2022/08/15 07:17:21;;;;;;;8.40;2.90;;;24.20;25.50;;;;;;5047727;28;20393;-50
2022/08/15 07:19:46;;;;;;;6.72;2.80;;;24.00;69.90;;;;;;5038399;28;20400;-49
2022/08/15 07:22:12;;;;;;;8.67;2.60;;;24.30;25.50;;;;;;5050618;28;20370;-49
2022/08/15 07:24:49;;;;;;;7.10;2.57;;;24.10;1.00;;;;;;5052182;28;20398;-49
2022/08/15 07:27:17;;;;;;;7.60;2.90;;;23.80;1.00;;;;;;5051765;28;20412;-49
2022/08/15 07:30:00;;;;;;;9.25;2.40;;;23.60;5.30;;;;;;5052017;28;20410;-49
2022/08/15 07:32:41;;;;;;;7.50;2.70;;;23.50;41.30;;;;;;5051990;28;20494;-49
2022/08/15 07:35:11;;;;;;;6.93;2.40;;;23.60;39.20;;;;;;5050977;28;20515;-49
2022/08/15 07:37:41;;;;;;;7.23;2.60;;;23.60;11.30;;;;;;5051771;28;20477;-49
2022/08/15 07:40:14;;;;;;;7.28;2.00;;;24.20;99.90;;;;;;5051027;28;20482;-51
2022/08/15 07:42:42;;;;;;;7.05;2.40;;;26.00;99.90;;;;;;5052042;28;20430;-50
2022/08/15 07:45:14;;;;;;;6.70;2.20;;;;;;;;;;5050977;28;20477;-50
2022/08/15 07:47:54;;;;;;;6.70;2.50;;;;;;;;;;5051598;28;20382;-50
2022/08/15 07:50:26;;;;;;;6.50;2.40;;;;;;;;;;5051381;28;20428;-50
2022/08/15 07:52:57;;;;;;;7.85;2.70;;;31.90;1.00;;;;;;5051735;28;20381;-50
2022/08/15 07:55:23;;;;;;;6.00;2.50;;;31.70;1.00;;;;;;5051106;28;20397;-50
2022/08/15 07:58:17;;;;;;;8.20;2.90;;;32.10;1.00;;;;;;5051403;28;20385;-50
2022/08/15 08:00:52;;;;;;;6.90;2.70;;;32.60;1.00;;;;;;5051886;28;20866;-50
2022/08/15 08:03:29;;;;;;;6.93;2.50;;;32.90;1.00;;;;;;5050713;28;20421;-50
2022/08/15 08:06:01;;;;;;;7.25;2.92;;;32.10;1.00;;;;;;5051651;28;20390;-52
2022/08/15 08:08:41;;;;;;;7.88;2.92;;;30.90;1.00;;;;;;5051094;28;20373;-50
2022/08/15 08:11:19;;;;;;;8.95;2.95;;;29.80;1.00;;;;;;5050733;28;20831;-50
2022/08/15 08:14:11;;;;;;;6.50;2.88;;;28.80;99.90;;;;;;5051381;28;20392;-50
2022/08/15 08:16:48;;;;;;;7.85;3.20;;;27.90;1.00;;;;;;5051341;28;20858;-50
2022/08/15 08:19:26;;;;;;;7.82;3.10;;;27.80;1.00;;;;;;5050880;28;20439;-50
2022/08/15 08:22:30;;;;;;;9.38;3.45;;;27.50;1.00;;;;;;5050876;28;20468;-50
2022/08/15 08:25:26;;;;;;;8.10;3.50;;;27.20;1.00;;;;;;5043611;28;20464;-51
2022/08/15 08:28:07;;;;;;;7.50;3.60;;;27.10;1.00;;;;;;5050896;28;20381;-50
2022/08/15 08:30:58;;;;;;;7.68;3.30;;;27.20;1.00;;;;;;5050744;28;20443;-49
2022/08/15 08:34:11;;;;;;;7.97;3.58;;;26.90;1.00;;;;;;5050311;28;20392;-49
2022/08/15 08:36:48;;;;;;;8.10;3.90;;;26.60;1.00;;;;;;5050645;28;20400;-50
2022/08/15 08:39:30;;;;;;;8.70;4.18;;;;;;;;;;5050133;28;20855;-50
2022/08/15 08:41:56;;;;;;;7.00;3.47;;;;;;;;;;5050888;28;20370;-50
2022/08/15 08:44:38;;;;;;;8.07;3.50;;;;;;;;;;5050254;28;20447;-50
2022/08/15 08:47:07;;;;;;;8.38;3.97;;;;;;;;;;5049822;28;20404;-54
2022/08/15 08:49:53;;;;;;;7.30;4.00;;;;;;;;;;5050593;28;20850;-50
2022/08/15 08:52:22;;;;;;;7.90;4.40;;;;;;;;;;5050256;28;20449;-50
2022/08/15 08:54:49;;;;;;;8.52;4.10;;;;;;;;;;5050508;28;20528;-50
2022/08/15 08:57:18;;;;;;;9.80;4.20;;;;;;;;;;5049120;28;20394;-50
2022/08/15 08:59:52;;;;;;;7.55;4.20;;;;;;;;;;5050593;28;20384;-51
2022/08/15 09:02:21;;;;;;;8.88;3.97;;;;;;;;;;5050074;28;20374;-51
2022/08/15 09:04:50;;;;;;;10.13;5.00;;;;;;;;;;5050111;28;20405;-50
2022/08/15 09:07:20;;;;;;;10.55;5.20;;;;;;;;;;5049178;28;20392;-50
2022/08/15 09:09:47;;;;;;;9.90;3.90;;;;;;;;;;5050121;28;20357;-51
2022/08/15 09:15:05;;;;;;;7.30;4.20;;;;;;;;;;5049380;28;20900;-55
2022/08/15 09:17:33;;;;;;;9.10;3.90;;;;;;;;;;5049752;28;20763;-50
2022/08/15 09:20:06;;;;;;;8.80;4.50;;;;;;;;;;5050167;28;20688;-50
2022/08/15 09:22:32;;;;;;;7.32;4.10;;;35.30;1.00;;;;;;5050124;28;20369;-50
2022/08/15 09:24:58;;;;;;;7.63;4.15;;;;;;;;;;5049808;28;20405;-50
2022/08/15 09:27:32;;;;;;;7.00;4.03;;;;;;;;;;5049249;28;20385;-50
2022/08/15 09:30:05;;;;;;;8.25;4.10;;;;;;;;;;5049587;28;20432;-50
2022/08/15 09:32:37;;;;;;;6.60;3.45;;;;;;;;;;5046998;28;20769;-50
2022/08/15 09:35:22;;;;;;;6.60;4.28;;;;;;;;;;5049428;28;20421;-51
2022/08/15 09:37:48;;;;;;;6.72;3.70;;;;;;;;;;5050437;28;20460;-50
2022/08/15 09:40:25;;;;;;;7.13;3.88;;;;;;;;;;5048320;28;20543;-51
2022/08/15 09:42:55;;;;;;;7.03;4.00;;;33.90;1.00;;;;;;5049786;28;20473;-50
2022/08/15 09:45:34;;;;;;;8.00;3.80;;;32.50;1.00;;;;;;5048872;28;20477;-50
2022/08/15 09:48:27;;;;;;;7.63;3.20;;;31.00;1.00;;;;;;5049248;28;20385;-55
2022/08/15 09:51:12;;;;;;;6.57;3.10;;;;;;;;;;5050239;28;20385;-53
2022/08/15 09:54:13;;;;;;;6.70;3.38;;;33.10;1.00;;;;;;5048645;28;20404;-55
2022/08/15 09:56:40;;;;;;;7.20;3.70;;;35.20;1.00;;;;;;5048001;28;20413;-50
2022/08/15 09:59:14;;;;;;;7.00;3.70;;;34.40;1.00;;;;;;5048040;28;20400;-51
2022/08/15 10:01:58;;;;;;;6.35;3.50;;;34.10;1.00;;;;;;5048686;28;20384;-50
2022/08/15 10:04:49;;;;;;;6.00;3.40;;;34.90;1.00;;;;;;5040945;28;20459;-50
2022/08/15 10:07:15;;;;;;;7.10;3.50;;;34.90;1.00;;;;;;5047446;28;20432;-51
2022/08/15 10:10:12;;;;;;;6.20;3.60;;;34.60;1.00;;;;;;5047633;28;20880;-54
2022/08/15 10:12:38;;;;;;;6.13;2.75;;;32.90;1.00;;;;;;5038289;28;20421;-50
2022/08/15 10:15:25;;;;;;;5.80;2.60;;;31.60;1.00;;;;;;5047042;28;20398;-50
2022/08/15 10:17:52;;;;;;;6.85;3.50;;;30.80;1.00;;;;;;5046871;28;20398;-50
2022/08/15 10:20:22;;;;;;;7.30;3.05;;;29.80;1.00;;;;;;5045310;28;20589;-50
2022/08/15 10:22:52;;;;;;;6.63;3.60;;;28.90;1.00;;;;;;5047209;28;20989;-50
2022/08/15 10:25:17;;;;;;;7.90;2.67;;;29.70;1.00;;;;;;5049138;28;20612;-49
2022/08/15 10:28:07;;;;;;;8.50;3.30;;;30.90;1.00;;;;;;5047623;28;20535;-50
2022/08/15 10:30:36;;;;;;;7.00;3.10;;;30.40;1.00;;;;;;5045789;28;20752;-50
2022/08/15 10:33:24;;;;;;;7.78;3.17;;;29.60;1.00;;;;;;5045956;28;20432;-55
2022/08/15 10:35:51;;;;;;;9.50;3.10;;;29.60;1.00;;;;;;5046200;28;20397;-52
2022/08/15 10:38:25;;;;;;;10.20;3.40;;;29.80;1.00;;;;;;5048751;28;20468;-52
2022/08/15 10:41:16;;;;;;;7.20;2.80;;;29.40;1.00;;;;;;5047897;28;20413;-50
2022/08/15 10:44:03;;;;;;;6.90;3.00;;;30.00;1.00;;;;;;5045193;28;20465;-50
2022/08/15 10:46:51;;;;;;;5.82;2.42;;;30.10;1.00;;;;;;5047449;28;20445;-51
2022/08/15 10:49:35;;;;;;;7.43;3.10;;;30.70;1.00;;;;;;5044337;28;20771;-53
2022/08/15 10:52:19;;;;;;;6.23;2.30;;;30.50;1.00;;;;;;5044738;28;20513;-55
2022/08/15 10:54:51;;;;;;;7.97;2.90;;;30.80;1.00;;;;;;5047825;28;20420;-50
2022/08/15 10:57:20;;;;;;;7.55;3.00;;;30.80;1.00;;;;;;5047670;28;20478;-52
2022/08/15 10:59:53;;;;;;;6.07;3.20;;;31.20;1.00;;;;;;5050039;28;20879;-50
2022/08/15 11:02:37;;;;;;;6.40;2.90;;;31.30;1.00;;;;;;5049217;28;20444;-50
2022/08/15 11:05:09;;;;;;;6.30;2.90;;;31.30;1.00;;;;;;5047653;28;20952;-55
2022/08/15 11:07:36;;;;;;;6.18;3.17;;;30.50;1.00;;;;;;5048533;28;20408;-50
2022/08/15 11:10:13;;;;;;;7.50;3.30;;;30.90;1.00;;;;;;5048625;28;20954;-55
2022/08/15 11:12:48;;;;;;;7.00;3.20;;;31.10;1.00;;;;;;5049897;28;20431;-50
2022/08/15 11:15:43;;;;;;;6.60;2.90;;;30.80;1.00;;;;;;5047430;28;20411;-50
2022/08/15 11:18:09;;;;;;;7.40;3.60;;;30.50;1.00;;;;;;5029566;28;20412;-50
2022/08/15 11:20:42;;;;;;;6.53;3.30;;;30.50;1.00;;;;;;5046080;28;20458;-50
2022/08/15 11:23:09;;;;;;;7.17;3.30;;;30.80;1.00;;;;;;5047031;28;20398;-50
2022/08/15 11:25:38;;;;;;;6.07;2.50;;;31.40;1.00;;;;;;5049934;28;20429;-55
2022/08/15 11:28:20;;;;;;;6.00;2.83;;;31.40;1.00;;;;;;5043756;28;20415;-54
2022/08/15 11:30:47;;;;;;;6.93;2.90;;;31.00;1.00;;;;;;5050631;28;20378;-50
2022/08/15 11:33:25;;;;;;;6.68;3.20;;;31.00;1.00;;;;;;5046589;28;20453;-50
2022/08/15 11:36:08;;;;;;;6.20;2.80;;;31.40;1.00;;;;;;5049005;28;20807;-51
2022/08/15 11:38:35;;;;;;;6.90;2.90;;;31.40;1.00;;;;;;5049586;28;20398;-51
2022/08/15 11:41:02;;;;;;;6.40;2.70;;;31.70;1.00;;;;;;5049541;28;20402;-55
2022/08/15 11:43:29;;;;;;;6.25;2.88;;;31.70;1.00;;;;;;5048797;28;20432;-52
2022/08/15 11:45:56;;;;;;;7.75;3.08;;;31.50;1.00;;;;;;5053176;28;20403;-50
2022/08/15 11:48:29;;;;;;;6.87;3.43;;;30.90;1.00;;;;;;5051459;28;20386;-50
2022/08/15 11:51:01;;;;;;;6.80;2.58;;;31.50;1.00;;;;;;5046913;28;20390;-52
2022/08/15 11:54:00;;;;;;;6.80;3.17;;;31.90;1.00;;;;;;5048807;28;20436;-55
2022/08/15 11:57:01;;;;;;;8.30;2.88;;;32.10;1.00;;;;;;5049225;28;20425;-50
2022/08/15 11:59:33;;;;;;;7.22;3.20;;;32.80;1.00;;;;;;5046223;28;20405;-50
2022/08/15 12:02:19;;;;;;;8.40;3.50;;;32.60;1.00;;;;;;5050228;28;20883;-51
2022/08/15 12:04:47;;;;;;;7.20;3.50;;;32.30;1.00;;;;;;5035087;28;20431;-50
2022/08/15 12:07:21;;;;;;;8.13;3.47;;;32.40;1.00;;;;;;5047436;28;21096;-51
2022/08/15 12:10:03;;;;;;;8.00;2.92;;;32.00;1.00;;;;;;5050633;28;20455;-50
2022/08/15 12:12:38;;;;;;;6.55;2.90;;;31.80;1.00;;;;;;5051935;28;20406;-50
2022/08/15 12:15:10;;;;;;;6.30;3.40;;;31.80;1.00;;;;;;5039747;28;20497;-55
2022/08/15 12:17:36;;;;;;;8.52;3.35;;;31.80;1.00;;;;;;5044142;28;20770;-52
2022/08/15 12:20:04;;;;;;;6.70;3.80;;;31.30;1.00;;;;;;5050382;28;20386;-54
2022/08/15 12:22:37;;;;;;;6.70;3.60;;;31.10;1.00;;;;;;5050320;28;20396;-50
2022/08/15 12:25:06;;;;;;;7.00;3.20;;;31.70;1.00;;;;;;5050627;28;20906;-55
2022/08/15 12:27:35;;;;;;;8.40;3.50;;;32.00;1.00;;;;;;5055124;28;20459;-50
2022/08/15 12:30:06;;;;;;;9.15;4.20;;;32.30;1.00;;;;;;5050810;28;20416;-52
2022/08/15 12:32:32;;;;;;;8.07;3.67;;;32.50;1.00;;;;;;5047780;28;20558;-50
2022/08/15 12:34:59;;;;;;;9.60;3.60;;;32.40;1.00;;;;;;5048757;28;20396;-50
2022/08/15 12:37:26;;;;;;;7.90;3.00;;;31.60;1.00;;;;;;5046810;28;20481;-50
2022/08/15 12:39:58;;;;;;;6.93;3.47;;;31.70;1.00;;;;;;5047366;28;20404;-50
2022/08/15 12:42:33;;;;;;;7.13;3.70;;;32.00;1.00;;;;;;5046535;28;20436;-52
2022/08/15 12:45:15;;;;;;;9.02;3.60;;;31.90;1.00;;;;;;5041860;28;20405;-51
2022/08/15 12:47:42;;;;;;;7.10;3.03;;;31.60;1.00;;;;;;5041331;28;20409;-50
2022/08/15 12:50:08;;;;;;;7.35;3.80;;;31.60;1.00;;;;;;5042830;28;20447;-51
2022/08/15 12:52:35;;;;;;;9.70;3.47;;;32.00;1.00;;;;;;5048692;28;20458;-50
2022/08/15 12:55:01;;;;;;;6.70;3.50;;;31.70;1.00;;;;;;5043529;28;20400;-50
2022/08/15 12:57:28;;;;;;;7.30;3.50;;;31.40;1.00;;;;;;5048195;28;20406;-50
2022/08/15 12:59:54;;;;;;;7.53;3.15;;;31.40;1.00;;;;;;5049979;28;20388;-51
2022/08/15 13:02:20;;;;;;;7.53;3.70;;;31.90;1.00;;;;;;5048145;28;20401;-50
2022/08/15 13:04:49;;;;;;;7.88;3.90;;;32.30;1.00;;;;;;5050535;28;20930;-51
2022/08/15 13:07:16;;;;;;;7.07;3.60;;;32.20;1.00;;;;;;5051512;28;20403;-50
2022/08/15 13:09:43;;;;;;;7.07;3.45;;;31.90;1.00;;;;;;5058228;28;20753;-51
2022/08/15 13:12:09;;;;;;;6.50;3.50;;;32.00;1.00;;;;;;5047552;28;20406;-51
2022/08/15 13:14:35;;;;;;;7.47;3.80;;;32.30;1.00;;;;;;5048125;28;20397;-50
2022/08/15 13:17:02;;;;;;;7.60;3.30;;;32.50;1.00;;;;;;5048281;28;20750;-50
2022/08/15 13:23:34;;;;;;;8.30;4.10;;;32.70;1.00;;;;;;5047518;28;20929;-50
2022/08/15 13:25:08;;;;;;;7.63;3.70;;;32.30;1.00;;;;;;5036658;28;20408;-50
2022/08/15 13:27:34;;;;;;;9.07;3.70;;;31.90;1.00;;;;;;5047658;28;20409;-50
2022/08/15 13:30:03;;;;;;;8.00;4.35;;;31.80;1.00;;;;;;5047306;28;20482;-50
2022/08/15 13:32:30;;;;;;;9.80;3.58;;;31.60;1.00;;;;;;5047313;28;20433;-50
2022/08/15 13:34:55;;;;;;;8.48;3.70;;;31.40;1.00;;;;;;5048800;28;20396;-50
2022/08/15 13:37:23;;;;;;;8.27;4.20;;;31.30;1.00;;;;;;5047736;28;21046;-50
2022/08/15 13:39:49;;;;;;;6.63;3.50;;;31.10;1.00;;;;;;5042257;28;21012;-52